Aeroporto :
LOGIN :

Iscrizione | Disclaimer

   EN    FR    IT 

 










Sommario :    VFR   VFR Marginale   IFR   IFR Intensivo   IFR Molto Intensivo
Visibilità : 
Base nubi : 
>= 8 km
>= 3000ft
5 / 8 km
1000 / 3000 ft
1500m / 5 km
500 / 1000 ft
800 / 1500m
200 / 500 ft
< 800m
< 200 ft
Simboli :   Temporali  Nebbia  Neve Forte  Precipitazioni Forti  Vento > 20 kt
SIGMETs :   Varie  Temporali  Ghiacco  Turbolenza  Onda orograficha  Ceneri Vulcaniche







- Altitudine del aeroporto : 137 ft


LIPS - Istrana AFB Treviso

ULTIMO METAR :
  • 181255Z 08012KT 9999 FEW015 BKN050 09/07 Q1015 RMK BKN VIS MIN 9999 WIND THR26 04014KT WIND THR08 08016KT BLU

METARs OBSOLETI :
  • 181155Z 08009KT 9999 BKN040 10/08 Q1015 RMK BKN VIS MIN 9999 WIND THR26 03010KT WIND THR08 07011KT BLU
  • 181055Z 05009KT 8000 -RA FEW020 BKN040 09/07 Q1014 RMK OVC VIS MIN 8000 WIND THR26 01009KT WIND THR08 05011KT BLU

TAF TAF LIPS
Valido dal 18 a 12 ore il 18 a 21 ore UTC


181100Z 1812/1821 05012KT 9999 SCT035 SCT080
TEMPO 1812/1815 5000 RA BR SCT020 BKN030
BECMG 1816/1818 06006KT 9999 BKN090
Nessun NOTAM noto per questo aeroporto.



MetMap, La meteo Aeronautica in un colpo d'occhio ! - Copyright ORBIFLY Dicembre 2007 - Disclaimer

ORBIFLY MET'MAP TEAM :

Programmazione e sviluppo : Alexandra Zaïnal
Concezione e sviluppo : Baudouin d'Aumeries
Co-Programmazione e sviluppo : Marc-Olivier Méhu
Supporto tecnico e logistico : Manuel Goepfert
Aiuto per la traduzione : Arnaldo La Scala

Contatto : metmap@orbifly.com




FONTI E CREDITI :

   NOAA